Página principal
METAR-TAF:

METAR-TAF

Aeroportos :

Aeroporto Internacional de Mehrabad

Teerã, Irão

latitude: 35-41N, longitude: 051-21E, altura: 1204 m

Observação actual do tempo

O boletim foi feito há 14 minutos, às 20:30 UTC
Vento 6 kt de oeste
Temperatura 7°C
Humidade 45%
Pressão 1023 hPa
Visibilidade 10 km ou mais
sem nuvens abaixo de 1500 metros e sem cumulonimbus

METAR: OIII 242030Z 28006KT CAVOK 07/M04 Q1022 A3021

Hora: 01:14 (20:44 UTC)

Previsão

O boletim foi feito há 9 horas e 14 minutos, às 11:30 UTC
Previsão válida de 24 às 12 UTC a 25 às 18 UTC
Vento 6 kt de su-sudoeste
Visibilidade 10 km ou mais
Nuvens dispersasa uma altura de 3500 ft
Temporariamente
de 25 às 09 UTC a 25 às 15 UTC
Poucas nuvensa uma altura de 3500 ft, Cumulus congestus.
Nuvens dispersasa uma altura de 10000 ft

TAF: OIII 241130Z 2412/2518 20006KT 9999 SCT035 TEMPO 2509/2515 FEW035TCU SCT100

Observações e previsões do tempo de mais de 4000 aeroportos (mensagens METAR e TAF).

As estações disponíveis são os pontos amarelos e vermelhos sobre o mapa.

Mova o rato sobre o mapa para ver o nome da estação.

Depois clique no ponto para visualizar as observações e previsões meteorológicas.

Para alterar o mapa : clique nos botões verdes com uma cruz preta para aumentar o zoom; no botão verde com uma pitada de zoom; ou nas setas verdes para mapas adjacentes.


METAR-TAF: